createdAt,value
2019-01-05T00:00:26.547Z,3.00
2019-01-05T00:03:35.710Z,2.90
2019-01-05T00:06:58.155Z,2.90
2019-01-05T00:10:21.111Z,2.90
2019-01-05T00:13:27.481Z,2.90
2019-01-05T00:16:34.124Z,3.00
2019-01-05T00:20:00.187Z,3.00
2019-01-05T00:23:12.736Z,3.00
2019-01-05T00:26:35.662Z,3.00
2019-01-05T00:29:44.989Z,2.90
2019-01-05T00:33:07.880Z,2.90
2019-01-05T00:36:31.116Z,3.00
2019-01-05T00:39:44.368Z,3.00
2019-01-05T00:43:09.552Z,3.00
2019-01-05T00:46:25.456Z,3.00
2019-01-05T00:49:39.434Z,3.00
2019-01-05T00:52:48.118Z,3.00
2019-01-05T00:55:55.475Z,3.10
2019-01-05T00:59:17.379Z,3.10
2019-01-05T01:02:35.805Z,3.10
2019-01-05T01:05:41.878Z,3.10
2019-01-05T01:08:48.130Z,3.10
2019-01-05T01:11:54.203Z,3.10
2019-01-05T01:15:03.381Z,3.10
2019-01-05T01:18:18.043Z,3.20
2019-01-05T01:21:33.080Z,3.20
2019-01-05T01:24:39.533Z,3.20
2019-01-05T01:27:45.681Z,3.10
2019-01-05T01:30:57.803Z,3.10
2019-01-05T01:34:03.957Z,3.10
2019-01-05T01:37:22.143Z,3.10
2019-01-05T01:40:28.232Z,3.00
2019-01-05T01:43:34.336Z,3.10
2019-01-05T01:46:41.383Z,3.10
2019-01-05T01:49:47.794Z,3.10
2019-01-05T01:52:56.503Z,3.10
2019-01-05T01:56:11.491Z,3.00
2019-01-05T01:59:36.187Z,3.00
2019-01-05T02:02:44.603Z,3.00
2019-01-05T02:06:07.767Z,3.00
2019-01-05T02:09:29.382Z,3.00
2019-01-05T02:12:55.632Z,3.00
2019-01-05T02:16:18.528Z,3.00
2019-01-05T02:19:28.084Z,3.00
2019-01-05T02:23:11.881Z,2.90
2019-01-05T02:27:04.649Z,2.90
2019-01-05T02:30:33.648Z,2.90
2019-01-05T02:34:29.386Z,2.90
2019-01-05T02:37:51.310Z,2.90
2019-01-05T02:41:35.446Z,2.90
2019-01-05T02:45:05.373Z,2.90
2019-01-05T02:49:10.927Z,3.00
2019-01-05T02:52:46.701Z,3.00
2019-01-05T02:56:30.740Z,2.90
2019-01-05T03:00:17.294Z,2.90
2019-01-05T03:04:15.324Z,2.90
2019-01-05T03:07:53.138Z,2.90
2019-01-05T03:11:15.833Z,2.90
2019-01-05T03:14:51.000Z,2.90
2019-01-05T03:18:45.428Z,2.90
2019-01-05T03:22:41.719Z,2.90
2019-01-05T03:26:33.705Z,2.90
2019-01-05T03:30:12.034Z,2.90
2019-01-05T03:33:58.655Z,2.90
2019-01-05T03:37:52.574Z,2.80
2019-01-05T03:41:21.274Z,2.80
2019-01-05T03:44:44.076Z,2.70
2019-01-05T03:48:23.465Z,2.80
2019-01-05T03:51:55.051Z,2.80
2019-01-05T03:55:24.455Z,2.80
2019-01-05T03:59:06.556Z,2.70
2019-01-05T04:02:51.892Z,2.80
2019-01-05T04:06:20.261Z,2.80
2019-01-05T04:10:10.094Z,2.70
2019-01-05T04:14:01.679Z,2.70
2019-01-05T04:17:32.310Z,2.70
2019-01-05T04:21:15.773Z,2.60
2019-01-05T04:24:55.870Z,2.50
2019-01-05T04:28:43.153Z,2.50
2019-01-05T04:32:11.625Z,2.50
2019-01-05T04:35:49.433Z,2.40
2019-01-05T04:39:38.727Z,2.30
2019-01-05T04:43:45.806Z,2.40
2019-01-05T04:47:51.966Z,2.40
2019-01-05T04:51:32.764Z,2.40
2019-01-05T04:54:55.265Z,2.30
2019-01-05T04:58:27.366Z,2.30
2019-01-05T05:02:25.241Z,2.20
2019-01-05T05:06:07.780Z,2.10
2019-01-05T05:09:39.240Z,2.10
2019-01-05T05:13:18.506Z,2.00
2019-01-05T05:17:07.195Z,2.00
2019-01-05T05:20:45.089Z,2.00
2019-01-05T05:24:25.976Z,2.00
2019-01-05T05:27:48.695Z,2.00
2019-01-05T05:31:58.607Z,2.00
2019-01-05T05:35:25.986Z,2.10
2019-01-05T05:38:55.978Z,2.00
2019-01-05T05:42:49.477Z,2.00
2019-01-05T05:46:28.814Z,2.10
2019-01-05T05:50:12.321Z,2.00
2019-01-05T05:54:19.311Z,2.10
2019-01-05T05:57:41.716Z,2.10
2019-01-05T06:01:27.241Z,2.10
2019-01-05T06:05:37.246Z,2.10
2019-01-05T06:09:26.841Z,2.20
2019-01-05T06:13:14.868Z,2.10
2019-01-05T06:16:31.578Z,2.10
2019-01-05T06:20:12.676Z,2.00
2019-01-05T06:24:15.601Z,2.00
2019-01-05T06:27:56.334Z,2.10
2019-01-05T06:31:27.572Z,2.20
2019-01-05T06:34:43.885Z,2.10
2019-01-05T06:38:23.094Z,2.10
2019-01-05T06:42:08.302Z,2.20
2019-01-05T06:45:44.722Z,2.30
2019-01-05T06:49:29.855Z,2.20
2019-01-05T06:53:21.590Z,2.20
2019-01-05T06:57:40.813Z,2.20
2019-01-05T07:01:39.155Z,2.20
2019-01-05T07:05:30.600Z,2.10
2019-01-05T07:09:20.565Z,2.00
2019-01-05T07:13:01.929Z,2.00
2019-01-05T07:16:58.101Z,2.00
2019-01-05T07:20:43.151Z,2.00
2019-01-05T07:24:54.140Z,1.90
2019-01-05T07:28:57.783Z,2.00
2019-01-05T07:32:46.531Z,2.10
2019-01-05T07:36:37.240Z,2.10
2019-01-05T07:40:03.613Z,2.00
2019-01-05T07:43:37.494Z,2.00
2019-01-05T07:47:33.104Z,2.00
2019-01-05T07:51:20.344Z,2.00
2019-01-05T07:55:28.699Z,2.10
2019-01-05T07:59:26.436Z,2.00
2019-01-05T08:03:14.685Z,2.10
2019-01-05T08:07:16.400Z,2.10
2019-01-05T08:11:04.385Z,2.10
2019-01-05T08:14:59.005Z,2.10
2019-01-05T08:18:43.048Z,2.10
2019-01-05T08:22:32.307Z,2.10
2019-01-05T08:26:28.514Z,2.20
2019-01-05T08:30:04.836Z,2.20
2019-01-05T08:33:39.536Z,2.10
2019-01-05T08:37:20.346Z,2.10
2019-01-05T08:41:08.910Z,2.20
2019-01-05T08:45:12.276Z,2.10
2019-01-05T08:48:51.900Z,2.20
2019-01-05T08:52:11.313Z,2.20
2019-01-05T08:55:56.105Z,2.20
2019-01-05T08:59:31.892Z,2.20
2019-01-05T09:02:52.349Z,2.20
2019-01-05T09:06:59.558Z,2.20
2019-01-05T09:11:04.929Z,2.20
2019-01-05T09:15:08.415Z,2.20
2019-01-05T09:19:18.407Z,2.20
2019-01-05T09:23:04.184Z,2.20
2019-01-05T09:26:49.657Z,2.10
2019-01-05T09:30:36.465Z,2.20
2019-01-05T09:34:33.228Z,2.20
2019-01-05T09:38:12.263Z,2.20
2019-01-05T09:42:05.498Z,2.30
2019-01-05T09:46:03.177Z,2.40
2019-01-05T09:49:22.277Z,2.50
2019-01-05T09:53:07.856Z,2.50
2019-01-05T09:56:45.015Z,2.50
2019-01-05T10:00:03.724Z,2.60
2019-01-05T10:03:26.459Z,2.60
2019-01-05T10:07:26.429Z,2.60
2019-01-05T10:10:46.023Z,2.60
2019-01-05T10:14:34.625Z,2.60
2019-01-05T10:18:23.770Z,2.70
2019-01-05T10:22:10.048Z,2.80
2019-01-05T10:25:55.072Z,2.80
2019-01-05T10:29:39.565Z,2.80
2019-01-05T10:33:22.823Z,2.80
2019-01-05T10:37:27.181Z,2.90
2019-01-05T10:41:15.554Z,3.00
2019-01-05T10:45:07.403Z,3.10
2019-01-05T10:48:56.868Z,3.10
2019-01-05T10:53:07.541Z,3.00
2019-01-05T10:57:06.344Z,3.00
2019-01-05T11:00:51.851Z,3.10
2019-01-05T11:04:31.383Z,3.10
2019-01-05T11:08:26.384Z,3.20
2019-01-05T11:11:57.451Z,3.30
2019-01-05T11:15:27.662Z,3.20
2019-01-05T11:19:14.271Z,3.20
2019-01-05T11:23:02.671Z,3.30
2019-01-05T11:26:50.783Z,3.30
2019-01-05T11:30:40.423Z,3.30
2019-01-05T11:33:59.888Z,3.30
2019-01-05T11:37:48.433Z,3.30
2019-01-05T11:41:31.426Z,3.40
2019-01-05T11:45:25.688Z,3.40
2019-01-05T11:48:48.678Z,3.40
2019-01-05T11:52:17.262Z,3.40
2019-01-05T11:56:12.885Z,3.40
2019-01-05T11:59:51.788Z,3.50
2019-01-05T12:03:43.659Z,3.50
2019-01-05T12:07:36.230Z,3.50
2019-01-05T12:11:35.637Z,3.50
2019-01-05T12:15:17.867Z,3.40
2019-01-05T12:19:33.175Z,3.40
2019-01-05T12:23:18.781Z,3.40
2019-01-05T12:26:53.636Z,3.50
2019-01-05T12:30:37.296Z,3.50
2019-01-05T12:34:32.192Z,3.50
2019-01-05T12:38:34.163Z,3.50
2019-01-05T12:42:39.334Z,3.50
2019-01-05T12:46:30.620Z,3.50
2019-01-05T12:50:14.211Z,3.60
2019-01-05T12:54:20.814Z,3.60
2019-01-05T12:57:50.882Z,3.60
2019-01-05T13:01:25.175Z,3.60
2019-01-05T13:05:07.925Z,3.60
2019-01-05T13:09:11.745Z,3.70
2019-01-05T13:13:10.409Z,3.70
2019-01-05T13:17:07.514Z,3.70
2019-01-05T13:20:58.612Z,3.70
2019-01-05T13:25:00.388Z,3.80
2019-01-05T13:28:39.807Z,3.80
2019-01-05T13:32:13.850Z,3.80
2019-01-05T13:36:06.603Z,3.80
2019-01-05T13:39:39.489Z,3.80
2019-01-05T13:43:18.496Z,3.90
2019-01-05T13:47:08.606Z,3.90
2019-01-05T13:50:49.036Z,3.90
2019-01-05T13:54:12.932Z,3.90
2019-01-05T13:57:27.845Z,4.00
2019-01-05T14:00:36.679Z,4.00
2019-01-05T14:03:42.748Z,4.00
2019-01-05T14:07:04.939Z,4.00
2019-01-05T14:10:20.248Z,4.00
2019-01-05T14:13:42.369Z,4.10
2019-01-05T14:17:03.692Z,4.10
2019-01-05T14:20:19.143Z,4.10
2019-01-05T14:23:41.143Z,4.20
2019-01-05T14:27:03.613Z,4.20
2019-01-05T14:30:09.355Z,4.20
2019-01-05T14:33:33.377Z,4.20
2019-01-05T14:36:54.004Z,4.30
2019-01-05T14:40:02.756Z,4.20
2019-01-05T14:43:11.244Z,4.30
2019-01-05T14:46:17.313Z,4.30
2019-01-05T14:49:26.110Z,4.30
2019-01-05T14:52:50.521Z,4.30
2019-01-05T14:56:00.853Z,4.40
2019-01-05T14:59:09.547Z,4.40
2019-01-05T15:02:22.565Z,4.50
2019-01-05T15:05:44.560Z,4.50
2019-01-05T15:08:50.642Z,4.50
2019-01-05T15:12:08.583Z,4.50
2019-01-05T15:15:30.646Z,4.50
2019-01-05T15:18:55.525Z,4.50
2019-01-05T15:22:19.204Z,4.60
2019-01-05T15:25:35.496Z,4.60
2019-01-05T15:28:55.075Z,4.50
2019-01-05T15:32:01.453Z,4.60
2019-01-05T15:35:16.736Z,4.60
2019-01-05T15:38:35.083Z,4.60
2019-01-05T15:41:44.120Z,4.60
2019-01-05T15:44:48.329Z,4.70
2019-01-05T15:48:10.733Z,4.70
2019-01-05T15:51:15.202Z,4.70
2019-01-05T15:54:23.732Z,4.70
2019-01-05T15:57:45.964Z,4.60
2019-01-05T16:01:10.131Z,4.60
2019-01-05T16:04:19.172Z,4.60
2019-01-05T16:07:33.729Z,4.70
2019-01-05T16:10:49.931Z,4.60
2019-01-05T16:14:01.690Z,4.60
2019-01-05T16:17:13.724Z,4.70
2019-01-05T16:20:36.017Z,4.70
2019-01-05T16:23:42.090Z,4.70
2019-01-05T16:26:59.080Z,4.70
2019-01-05T16:30:08.860Z,4.60
2019-01-05T16:33:17.319Z,4.70
2019-01-05T16:36:23.397Z,4.60
2019-01-05T16:39:35.263Z,4.60
2019-01-05T16:42:47.217Z,4.60
2019-01-05T16:45:53.294Z,4.60
2019-01-05T16:49:11.391Z,4.60
2019-01-05T16:52:32.265Z,4.60
2019-01-05T16:55:54.640Z,4.60
2019-01-05T16:59:06.852Z,4.50
2019-01-05T17:02:19.470Z,4.50
2019-01-05T17:05:25.538Z,4.50
2019-01-05T17:08:50.120Z,4.40
2019-01-05T17:11:57.071Z,4.40
2019-01-05T17:15:12.004Z,4.40
2019-01-05T17:18:36.783Z,4.40
2019-01-05T17:21:43.155Z,4.50
2019-01-05T17:24:49.220Z,4.50
2019-01-05T17:28:11.681Z,4.50
2019-01-05T17:31:34.428Z,4.50
2019-01-05T17:34:43.187Z,4.50
2019-01-05T17:38:01.320Z,4.50
2019-01-05T17:41:23.513Z,4.50
2019-01-05T17:44:45.671Z,4.60
2019-01-05T17:47:51.751Z,4.60
2019-01-05T17:51:13.908Z,4.60
2019-01-05T17:54:32.230Z,4.50
2019-01-05T17:57:40.688Z,4.60
2019-01-05T18:00:47.838Z,4.60
2019-01-05T18:03:56.545Z,4.60
2019-01-05T18:07:11.336Z,4.70
2019-01-05T18:10:26.165Z,4.70
2019-01-05T18:13:42.333Z,4.70
2019-01-05T18:16:51.091Z,4.70
2019-01-05T18:20:13.587Z,4.80
2019-01-05T18:23:26.768Z,4.70
2019-01-05T18:26:32.850Z,4.80
2019-01-05T18:29:38.932Z,4.80
2019-01-05T18:33:01.685Z,4.80
2019-01-05T18:36:22.514Z,4.80
2019-01-05T18:39:44.621Z,4.80
2019-01-05T18:43:06.425Z,4.80
2019-01-05T18:46:10.961Z,4.90
2019-01-05T18:49:17.046Z,4.90
2019-01-05T18:52:35.437Z,4.90
2019-01-05T18:55:57.383Z,4.90
2019-01-05T18:59:12.171Z,4.90
2019-01-05T19:02:24.303Z,4.80
2019-01-05T19:05:36.503Z,4.90
2019-01-05T19:08:51.767Z,4.90
2019-01-05T19:11:55.996Z,4.90
2019-01-05T19:15:18.446Z,4.90
2019-01-05T19:18:27.460Z,4.90
2019-01-05T19:21:33.607Z,4.80
2019-01-05T19:24:39.799Z,4.80
2019-01-05T19:27:51.578Z,4.90
2019-01-05T19:30:57.667Z,4.90
2019-01-05T19:34:04.050Z,4.90
2019-01-05T19:37:26.392Z,4.90
2019-01-05T19:40:38.529Z,4.90
2019-01-05T19:44:00.832Z,4.90
2019-01-05T19:47:20.308Z,4.90
2019-01-05T19:50:26.640Z,4.90
2019-01-05T19:53:38.543Z,4.90
2019-01-05T19:56:44.619Z,5.00
2019-01-05T19:59:54.836Z,4.90
2019-01-05T20:03:06.705Z,5.00
2019-01-05T20:06:30.911Z,4.90
2019-01-05T20:09:48.620Z,4.90
2019-01-05T20:13:10.883Z,4.90
2019-01-05T20:16:25.921Z,4.90
2019-01-05T20:19:38.646Z,4.90
2019-01-05T20:22:45.865Z,4.90
2019-01-05T20:25:54.614Z,4.90
2019-01-05T20:29:16.696Z,4.90
2019-01-05T20:32:39.128Z,4.90
2019-01-05T20:36:01.204Z,5.00
2019-01-05T20:39:09.529Z,4.90
2019-01-05T20:42:18.318Z,5.00
2019-01-05T20:45:40.532Z,5.00
2019-01-05T20:49:01.637Z,5.00
2019-01-05T20:52:07.762Z,5.00
2019-01-05T20:55:30.168Z,4.90
2019-01-05T20:58:40.050Z,5.00
2019-01-05T21:01:51.666Z,4.90
2019-01-05T21:05:03.493Z,4.90
2019-01-05T21:08:13.860Z,4.90
2019-01-05T21:11:25.778Z,4.90
2019-01-05T21:14:44.205Z,4.80
2019-01-05T21:17:53.246Z,4.90
2019-01-05T21:21:17.248Z,4.80
2019-01-05T21:24:32.204Z,4.90
2019-01-05T21:27:54.251Z,4.90
2019-01-05T21:31:03.269Z,4.90
2019-01-05T21:34:15.501Z,4.90
2019-01-05T21:37:29.129Z,4.90
2019-01-05T21:40:38.365Z,4.90
2019-01-05T21:43:44.843Z,4.90
2019-01-05T21:46:54.174Z,4.90
2019-01-05T21:50:16.816Z,5.00
2019-01-05T21:53:25.737Z,5.00
2019-01-05T21:56:34.783Z,5.00
2019-01-05T21:59:41.210Z,4.90
2019-01-05T22:02:50.165Z,4.90
2019-01-05T22:05:59.193Z,4.90
2019-01-05T22:09:08.052Z,5.00
2019-01-05T22:12:29.125Z,5.00
2019-01-05T22:15:41.241Z,5.00
2019-01-05T22:18:53.548Z,5.00
2019-01-05T22:22:09.140Z,5.00
2019-01-05T22:25:18.160Z,5.00
2019-01-05T22:28:27.760Z,5.00
2019-01-05T22:31:39.812Z,5.00
2019-01-05T22:35:02.255Z,4.90
2019-01-05T22:38:11.290Z,5.00
2019-01-05T22:41:26.206Z,4.90
2019-01-05T22:44:32.300Z,4.90
2019-01-05T22:47:38.367Z,4.80
2019-01-05T22:50:44.442Z,4.80
2019-01-05T22:53:56.074Z,4.90
2019-01-05T22:57:10.882Z,4.90
2019-01-05T23:00:32.031Z,4.90
2019-01-05T23:03:47.322Z,4.90
2019-01-05T23:07:02.224Z,4.90
2019-01-05T23:10:14.990Z,4.90
2019-01-05T23:13:39.413Z,4.80
2019-01-05T23:16:48.230Z,4.80
2019-01-05T23:20:09.472Z,4.90
2019-01-05T23:23:24.498Z,4.90
2019-01-05T23:26:47.056Z,4.90
2019-01-05T23:29:59.158Z,4.90
2019-01-05T23:33:05.253Z,5.00
2019-01-05T23:36:27.162Z,4.90
2019-01-05T23:39:51.436Z,4.90
2019-01-05T23:43:13.637Z,4.90
2019-01-05T23:46:25.659Z,4.90
2019-01-05T23:49:37.989Z,4.80
2019-01-05T23:52:59.925Z,4.80
2019-01-05T23:56:06.291Z,4.80
2019-01-05T23:59:12.657Z,4.80
